WetterOnline ( https://www.wetteronline.de )

Wetter aktuell Waldkirch

Aktuelles Wetter: Freiburg/Flugplatz (236m)

6-stündlich | Neueste Meldungen
Ortszeit Temperatur Wetter
Mi, 19.01. 19:00 3.6° C bedeckt
Mi, 19.01. 13:00 4.7° C wolkenlos
Mi, 19.01. 7:00 -4.2° C Nebel
Mi, 19.01. 1:00 -2.3° C wolkenlos
Di, 18.01. 19:00 5.3° C wolkenlos
Di, 18.01. 13:00 7.8° C wolkenlos
Di, 18.01. 7:00 -0.7° C wolkenlos
Di, 18.01. 1:00 0.1° C bewölkt
Ortszeit Temperatur Wetter
Mi, 19.01. 21:00 3.6° C bedeckt
Mi, 19.01. 20:50 3.6° C bedeckt
Mi, 19.01. 20:40 3.5° C bedeckt
Mi, 19.01. 20:30 3.6° C bedeckt
Mi, 19.01. 20:20 3.6° C bedeckt
Mi, 19.01. 20:10 3.6° C bedeckt
Mi, 19.01. 20:00 3.6° C bedeckt
Mi, 19.01. 19:30 3.5° C bedeckt
Mi, 19.01. 19:00 3.6° C bedeckt
Mi, 19.01. 18:30 3.9° C bedeckt
Mi, 19.01. 18:00 4.1° C bedeckt
Ortszeit Relative Feuchte Sichtweite
Mi, 19.01. 19:00 69% 50 km
Mi, 19.01. 13:00 72% 26 km
Mi, 19.01. 7:00 93% 20 km
Mi, 19.01. 1:00 89% 11 km
Di, 18.01. 19:00 63% 60 km
Di, 18.01. 13:00 60% 65 km
Di, 18.01. 7:00 92% 8 km
Di, 18.01. 1:00 93% 9 km
Ortszeit Relative Feuchte Sichtweite
Mi, 19.01. 21:00 70% 45 km
Mi, 19.01. 20:50 70% -
Mi, 19.01. 20:40 70% -
Mi, 19.01. 20:30 70% 45 km
Mi, 19.01. 20:20 70% -
Mi, 19.01. 20:10 69% -
Mi, 19.01. 20:00 69% 45 km
Mi, 19.01. 19:30 70% 45 km
Mi, 19.01. 19:00 69% 50 km
Mi, 19.01. 18:30 67% 45 km
Mi, 19.01. 18:00 66% 45 km
Ortszeit Niederschlagsmenge Niederschlagsart
Mi, 19.01. 19:00 0.0 l/m2 in 12 Std. -
Mi, 19.01. 13:00 0.0 l/m2 in 6 Std. -
Mi, 19.01. 7:00 0.0 l/m2 in 12 Std. -
Mi, 19.01. 1:00 0.0 l/m2 in 6 Std. -
Di, 18.01. 19:00 0.0 l/m2 in 12 Std. -
Di, 18.01. 13:00 0.0 l/m2 in 6 Std. -
Di, 18.01. 7:00 0.1 l/m2 in 12 Std. Regen
Di, 18.01. 1:00 0.1 l/m2 in 6 Std. Regen
Ortszeit Niederschlagsmenge Niederschlagsart
Mi, 19.01. 21:00 0.0 l/m2 in 1 Std. -
Mi, 19.01. 20:50 keine Meldung -
Mi, 19.01. 20:40 keine Meldung -
Mi, 19.01. 20:30 0.0 l/m2 in 1 Std. -
Mi, 19.01. 20:20 keine Meldung -
Mi, 19.01. 20:10 keine Meldung -
Mi, 19.01. 20:00 0.0 l/m2 in 1 Std. -
Mi, 19.01. 19:30 0.0 l/m2 in 1 Std. -
Mi, 19.01. 19:00 0.0 l/m2 in 1 Std. -
Mi, 19.01. 18:30 0.0 l/m2 in 1 Std. -
Mi, 19.01. 18:00 0.0 l/m2 in 1 Std. -
Ortszeit Stärke Spitze Richtung
km/h Bft. km/h Grad Sektor
Mi, 19.01. 19:00 22 4 47 220° SW
Mi, 19.01. 13:00 28 4 50 220° SW
Mi, 19.01. 7:00 4 1 7 190° S
Mi, 19.01. 1:00 0 0 22 - -
Di, 18.01. 19:00 13 3 28 130° SO
Di, 18.01. 13:00 9 2 19 30° NO
Di, 18.01. 7:00 2 1 7 30° NO
Di, 18.01. 1:00 0 0 7 - -
Ortszeit Stärke Spitze Richtung
km/h Bft. km/h Grad Sektor
Mi, 19.01. 21:00 22 4 40 210° SW
Mi, 19.01. 20:50 22 4 - 210° SW
Mi, 19.01. 20:40 22 4 - 220° SW
Mi, 19.01. 20:30 20 4 37 210° SW
Mi, 19.01. 20:20 20 4 - 210° SW
Mi, 19.01. 20:10 20 4 - 220° SW
Mi, 19.01. 20:00 24 4 43 210° SW
Mi, 19.01. 19:30 25 4 43 210° SW
Mi, 19.01. 19:00 22 4 43 220° SW
Mi, 19.01. 18:30 20 4 39 220° SW
Mi, 19.01. 18:00 25 4 47 210° SW
Ortszeit Untergrenze Bedeckung Gattung
total tief tief mittel hoch
Mi, 19.01. 19:00 1170 m 8/8 8/8 - - -
Mi, 19.01. 13:00 - 0/8 0/8 - - -
Mi, 19.01. 7:00 - 0/8 0/8 - - -
Mi, 19.01. 1:00 - 0/8 0/8 - - -
Di, 18.01. 19:00 9000 m 0/8 0/8 - - -
Di, 18.01. 13:00 - 0/8 0/8 - - -
Di, 18.01. 7:00 - 0/8 0/8 - - -
Di, 18.01. 1:00 1170 m 7/8 7/8 - - -
Ortszeit Bedeckungsgrad in Achtel und Wolkenuntergrenze
Mi, 19.01. 21:00 8(1200m)
Mi, 19.01. 20:50 8(1200m)
Mi, 19.01. 20:40 8(1230m)
Mi, 19.01. 20:30 8(1290m)
Mi, 19.01. 20:20 8(1290m)
Mi, 19.01. 20:10 8(1290m)
Mi, 19.01. 20:00 8(1290m)
Mi, 19.01. 19:30 8(1260m)
Mi, 19.01. 19:00 8(1170m)
Mi, 19.01. 18:30 8(1200m)
Mi, 19.01. 18:00 8(1200m)
Ortszeit Luftdruck NN (hPa) Tendenz (hPa in 3 Std.)
Mi, 19.01. 19:00 1028 + 0,1
Mi, 19.01. 13:00 1030 - 0,5
Mi, 19.01. 7:00 1032 - 1,1
Mi, 19.01. 1:00 1035 - 0,8
Di, 18.01. 19:00 1035 + 0,2
Di, 18.01. 13:00 1036 - 1,2
Di, 18.01. 7:00 1038 - 0,1
Di, 18.01. 1:00 1039 - 0,5
Ortszeit Luftdruck NN (hPa) Tendenz (hPa in 3 Std.)
Mi, 19.01. 21:00 1028 + 0,1
Mi, 19.01. 20:50 1028 keine Meldung
Mi, 19.01. 20:40 1028 keine Meldung
Mi, 19.01. 20:30 1028 - 0,3
Mi, 19.01. 20:20 1028 keine Meldung
Mi, 19.01. 20:10 1028 keine Meldung
Mi, 19.01. 20:00 1028 - 0,3
Mi, 19.01. 19:30 1028 - 0,2
Mi, 19.01. 19:00 1028 + 0,1
Mi, 19.01. 18:30 1028 - 0,4
Mi, 19.01. 18:00 1028 - 0,2
Ortszeit Schneehöhe (cm)
Mi, 19.01. 19:00 0
Mi, 19.01. 13:00 0
Mi, 19.01. 7:00 0
Mi, 19.01. 1:00 0
Di, 18.01. 19:00 0
Di, 18.01. 13:00 0
Di, 18.01. 7:00 0
Di, 18.01. 1:00 0
Ortszeit Schneehöhe (cm)
Mi, 19.01. 21:00 0
Mi, 19.01. 20:50 0
Mi, 19.01. 20:40 0
Mi, 19.01. 20:30 0
Mi, 19.01. 20:20 0
Mi, 19.01. 20:10 0
Mi, 19.01. 20:00 0
Mi, 19.01. 19:30 0
Mi, 19.01. 19:00 0
Mi, 19.01. 18:30 0
Mi, 19.01. 18:00 0
Link zu dieser Seite / Seite empfehlen

Das Wetter in ...